sensor_id;sensor_type;location;lat;lon;timestamp;P1;durP1;ratioP1;P2;durP2;ratioP2
68310;SDS011;55157;51.036;17.058;2022-07-23T00:02:13;24.63;;;10.60;;
68310;SDS011;55157;51.036;17.058;2022-07-23T00:04:38;18.13;;;10.82;;
68310;SDS011;55157;51.036;17.058;2022-07-23T00:07:04;14.30;;;10.37;;
68310;SDS011;55157;51.036;17.058;2022-07-23T00:09:29;20.17;;;10.10;;
68310;SDS011;55157;51.036;17.058;2022-07-23T00:11:54;14.70;;;11.52;;
68310;SDS011;55157;51.036;17.058;2022-07-23T00:14:19;14.50;;;10.30;;
68310;SDS011;55157;51.036;17.058;2022-07-23T00:16:45;15.65;;;10.23;;
68310;SDS011;55157;51.036;17.058;2022-07-23T00:19:11;15.93;;;10.23;;
68310;SDS011;55157;51.036;17.058;2022-07-23T00:21:37;14.43;;;10.43;;
68310;SDS011;55157;51.036;17.058;2022-07-23T00:24:02;18.60;;;10.77;;
68310;SDS011;55157;51.036;17.058;2022-07-23T00:26:27;13.60;;;9.75;;
68310;SDS011;55157;51.036;17.058;2022-07-23T00:28:53;18.35;;;9.77;;
68310;SDS011;55157;51.036;17.058;2022-07-23T00:31:18;15.68;;;10.32;;
68310;SDS011;55157;51.036;17.058;2022-07-23T00:33:43;18.67;;;10.32;;
68310;SDS011;55157;51.036;17.058;2022-07-23T00:36:10;13.60;;;9.80;;
68310;SDS011;55157;51.036;17.058;2022-07-23T00:38:35;18.65;;;10.38;;
68310;SDS011;55157;51.036;17.058;2022-07-23T00:41:00;24.58;;;10.75;;
68310;SDS011;55157;51.036;17.058;2022-07-23T00:43:25;15.30;;;10.13;;
68310;SDS011;55157;51.036;17.058;2022-07-23T00:45:51;18.58;;;10.55;;
68310;SDS011;55157;51.036;17.058;2022-07-23T00:48:16;19.50;;;11.73;;
68310;SDS011;55157;51.036;17.058;2022-07-23T00:50:42;21.58;;;11.65;;
68310;SDS011;55157;51.036;17.058;2022-07-23T00:53:08;14.75;;;10.90;;
68310;SDS011;55157;51.036;17.058;2022-07-23T00:55:34;19.15;;;11.85;;
68310;SDS011;55157;51.036;17.058;2022-07-23T00:57:59;15.32;;;10.73;;
68310;SDS011;55157;51.036;17.058;2022-07-23T01:00:25;15.45;;;9.55;;
68310;SDS011;55157;51.036;17.058;2022-07-23T01:02:51;18.83;;;9.93;;
68310;SDS011;55157;51.036;17.058;2022-07-23T01:05:16;14.27;;;10.63;;
68310;SDS011;55157;51.036;17.058;2022-07-23T01:07:41;16.88;;;11.32;;
68310;SDS011;55157;51.036;17.058;2022-07-23T01:10:09;13.35;;;10.80;;
68310;SDS011;55157;51.036;17.058;2022-07-23T01:12:35;25.98;;;11.75;;
68310;SDS011;55157;51.036;17.058;2022-07-23T01:15:00;19.50;;;11.32;;
68310;SDS011;55157;51.036;17.058;2022-07-23T01:17:26;15.88;;;10.93;;
68310;SDS011;55157;51.036;17.058;2022-07-23T01:19:51;16.15;;;10.75;;
68310;SDS011;55157;51.036;17.058;2022-07-23T01:22:18;16.88;;;11.52;;
68310;SDS011;55157;51.036;17.058;2022-07-23T01:24:45;17.15;;;10.57;;
68310;SDS011;55157;51.036;17.058;2022-07-23T01:27:10;17.60;;;11.07;;
68310;SDS011;55157;51.036;17.058;2022-07-23T01:29:35;17.17;;;11.05;;
68310;SDS011;55157;51.036;17.058;2022-07-23T01:32:00;13.40;;;11.25;;
68310;SDS011;55157;51.036;17.058;2022-07-23T01:34:26;20.33;;;11.82;;
68310;SDS011;55157;51.036;17.058;2022-07-23T01:36:51;17.70;;;10.93;;
68310;SDS011;55157;51.036;17.058;2022-07-23T01:39:16;12.48;;;10.18;;
68310;SDS011;55157;51.036;17.058;2022-07-23T01:41:43;14.83;;;10.53;;
68310;SDS011;55157;51.036;17.058;2022-07-23T01:44:08;13.95;;;10.88;;
68310;SDS011;55157;51.036;17.058;2022-07-23T01:46:34;15.55;;;10.30;;
68310;SDS011;55157;51.036;17.058;2022-07-23T01:48:59;16.42;;;10.05;;
68310;SDS011;55157;51.036;17.058;2022-07-23T01:51:24;13.90;;;11.15;;
68310;SDS011;55157;51.036;17.058;2022-07-23T01:53:49;17.48;;;11.15;;
68310;SDS011;55157;51.036;17.058;2022-07-23T01:56:16;20.70;;;10.85;;
68310;SDS011;55157;51.036;17.058;2022-07-23T01:58:42;18.77;;;11.77;;
68310;SDS011;55157;51.036;17.058;2022-07-23T02:01:08;15.88;;;10.18;;
68310;SDS011;55157;51.036;17.058;2022-07-23T02:03:33;18.00;;;11.75;;
68310;SDS011;55157;51.036;17.058;2022-07-23T02:05:58;18.55;;;10.38;;
68310;SDS011;55157;51.036;17.058;2022-07-23T02:08:23;19.92;;;11.77;;
68310;SDS011;55157;51.036;17.058;2022-07-23T02:10:49;17.33;;;11.00;;
68310;SDS011;55157;51.036;17.058;2022-07-23T02:13:14;13.77;;;10.98;;
68310;SDS011;55157;51.036;17.058;2022-07-23T02:15:41;15.40;;;11.13;;
68310;SDS011;55157;51.036;17.058;2022-07-23T02:18:06;13.20;;;11.27;;
68310;SDS011;55157;51.036;17.058;2022-07-23T02:20:31;14.77;;;11.32;;
68310;SDS011;55157;51.036;17.058;2022-07-23T02:22:56;20.55;;;11.57;;
68310;SDS011;55157;51.036;17.058;2022-07-23T02:25:22;14.10;;;11.00;;
68310;SDS011;55157;51.036;17.058;2022-07-23T02:27:47;16.30;;;11.57;;
68310;SDS011;55157;51.036;17.058;2022-07-23T02:30:12;14.97;;;11.13;;
68310;SDS011;55157;51.036;17.058;2022-07-23T02:32:39;18.77;;;11.13;;
68310;SDS011;55157;51.036;17.058;2022-07-23T02:35:04;16.17;;;11.10;;
68310;SDS011;55157;51.036;17.058;2022-07-23T02:37:30;24.38;;;11.93;;
68310;SDS011;55157;51.036;17.058;2022-07-23T02:39:55;14.60;;;11.07;;
68310;SDS011;55157;51.036;17.058;2022-07-23T02:42:20;21.65;;;12.55;;
68310;SDS011;55157;51.036;17.058;2022-07-23T02:44:46;14.65;;;11.93;;
68310;SDS011;55157;51.036;17.058;2022-07-23T02:47:11;19.45;;;11.88;;
68310;SDS011;55157;51.036;17.058;2022-07-23T02:49:38;17.83;;;10.82;;
68310;SDS011;55157;51.036;17.058;2022-07-23T02:52:03;16.20;;;12.45;;
68310;SDS011;55157;51.036;17.058;2022-07-23T02:54:28;29.80;;;12.90;;
68310;SDS011;55157;51.036;17.058;2022-07-23T02:56:54;13.50;;;11.63;;
68310;SDS011;55157;51.036;17.058;2022-07-23T02:59:19;24.45;;;11.77;;
68310;SDS011;55157;51.036;17.058;2022-07-23T03:01:44;19.98;;;12.32;;
68310;SDS011;55157;51.036;17.058;2022-07-23T03:04:10;13.38;;;11.77;;
68310;SDS011;55157;51.036;17.058;2022-07-23T03:06:36;15.50;;;11.50;;
68310;SDS011;55157;51.036;17.058;2022-07-23T03:09:02;21.60;;;12.00;;
68310;SDS011;55157;51.036;17.058;2022-07-23T03:11:27;15.32;;;10.43;;
68310;SDS011;55157;51.036;17.058;2022-07-23T03:13:52;16.05;;;10.85;;
68310;SDS011;55157;51.036;17.058;2022-07-23T03:16:18;14.23;;;11.10;;
68310;SDS011;55157;51.036;17.058;2022-07-23T03:18:43;16.63;;;11.20;;
68310;SDS011;55157;51.036;17.058;2022-07-23T03:21:08;12.70;;;11.40;;
68310;SDS011;55157;51.036;17.058;2022-07-23T03:23:35;15.63;;;11.68;;
68310;SDS011;55157;51.036;17.058;2022-07-23T03:26:00;17.65;;;11.25;;
68310;SDS011;55157;51.036;17.058;2022-07-23T03:28:25;17.25;;;10.48;;
68310;SDS011;55157;51.036;17.058;2022-07-23T03:30:51;15.82;;;10.80;;
68310;SDS011;55157;51.036;17.058;2022-07-23T03:33:17;17.00;;;11.30;;
68310;SDS011;55157;51.036;17.058;2022-07-23T03:35:42;12.75;;;9.85;;
68310;SDS011;55157;51.036;17.058;2022-07-23T03:38:07;17.52;;;11.73;;
68310;SDS011;55157;51.036;17.058;2022-07-23T03:40:34;15.07;;;10.75;;
68310;SDS011;55157;51.036;17.058;2022-07-23T03:42:59;12.38;;;9.90;;
68310;SDS011;55157;51.036;17.058;2022-07-23T03:45:25;17.70;;;10.63;;
68310;SDS011;55157;51.036;17.058;2022-07-23T03:47:50;12.90;;;10.93;;
68310;SDS011;55157;51.036;17.058;2022-07-23T03:50:15;19.25;;;10.40;;
68310;SDS011;55157;51.036;17.058;2022-07-23T03:52:40;18.73;;;11.13;;
68310;SDS011;55157;51.036;17.058;2022-07-23T03:55:06;19.55;;;10.93;;
68310;SDS011;55157;51.036;17.058;2022-07-23T03:57:33;15.80;;;10.43;;
68310;SDS011;55157;51.036;17.058;2022-07-23T03:59:58;18.25;;;11.93;;
68310;SDS011;55157;51.036;17.058;2022-07-23T04:02:23;18.45;;;11.27;;
68310;SDS011;55157;51.036;17.058;2022-07-23T04:04:49;14.30;;;11.32;;
68310;SDS011;55157;51.036;17.058;2022-07-23T04:07:14;15.10;;;10.95;;
68310;SDS011;55157;51.036;17.058;2022-07-23T04:09:39;19.90;;;10.98;;
68310;SDS011;55157;51.036;17.058;2022-07-23T04:12:05;14.85;;;10.27;;
68310;SDS011;55157;51.036;17.058;2022-07-23T04:14:31;17.67;;;11.88;;
68310;SDS011;55157;51.036;17.058;2022-07-23T04:16:57;17.30;;;11.35;;
68310;SDS011;55157;51.036;17.058;2022-07-23T04:19:22;15.57;;;11.45;;
68310;SDS011;55157;51.036;17.058;2022-07-23T04:21:47;16.05;;;10.80;;
68310;SDS011;55157;51.036;17.058;2022-07-23T04:24:12;17.77;;;12.07;;
68310;SDS011;55157;51.036;17.058;2022-07-23T04:26:37;14.10;;;10.43;;
68310;SDS011;55157;51.036;17.058;2022-07-23T04:29:03;19.08;;;11.65;;
68310;SDS011;55157;51.036;17.058;2022-07-23T04:31:30;19.35;;;11.40;;
68310;SDS011;55157;51.036;17.058;2022-07-23T04:33:55;16.15;;;10.77;;
68310;SDS011;55157;51.036;17.058;2022-07-23T04:36:20;21.58;;;10.95;;
68310;SDS011;55157;51.036;17.058;2022-07-23T04:38:45;14.03;;;9.67;;
68310;SDS011;55157;51.036;17.058;2022-07-23T04:41:11;13.77;;;10.48;;
68310;SDS011;55157;51.036;17.058;2022-07-23T04:43:36;18.02;;;10.27;;
68310;SDS011;55157;51.036;17.058;2022-07-23T04:46:01;15.13;;;9.93;;
68310;SDS011;55157;51.036;17.058;2022-07-23T04:48:28;15.00;;;9.93;;
68310;SDS011;55157;51.036;17.058;2022-07-23T04:50:53;15.95;;;10.63;;
68310;SDS011;55157;51.036;17.058;2022-07-23T04:53:18;14.50;;;9.68;;
68310;SDS011;55157;51.036;17.058;2022-07-23T04:55:44;17.17;;;10.65;;
68310;SDS011;55157;51.036;17.058;2022-07-23T04:58:09;15.70;;;11.32;;
68310;SDS011;55157;51.036;17.058;2022-07-23T05:00:34;18.85;;;11.32;;
68310;SDS011;55157;51.036;17.058;2022-07-23T05:02:59;16.95;;;10.65;;
68310;SDS011;55157;51.036;17.058;2022-07-23T05:05:26;17.17;;;10.48;;
68310;SDS011;55157;51.036;17.058;2022-07-23T05:07:51;17.00;;;10.60;;
68310;SDS011;55157;51.036;17.058;2022-07-23T05:10:17;14.90;;;10.82;;
68310;SDS011;55157;51.036;17.058;2022-07-23T05:12:42;13.60;;;10.80;;
68310;SDS011;55157;51.036;17.058;2022-07-23T05:15:07;12.73;;;10.00;;
68310;SDS011;55157;51.036;17.058;2022-07-23T05:17:33;16.17;;;10.77;;
68310;SDS011;55157;51.036;17.058;2022-07-23T05:19:58;21.70;;;10.35;;
68310;SDS011;55157;51.036;17.058;2022-07-23T05:22:25;15.20;;;9.57;;
68310;SDS011;55157;51.036;17.058;2022-07-23T05:24:50;12.50;;;9.73;;
68310;SDS011;55157;51.036;17.058;2022-07-23T05:27:15;15.27;;;10.07;;
68310;SDS011;55157;51.036;17.058;2022-07-23T05:29:40;12.30;;;9.73;;
68310;SDS011;55157;51.036;17.058;2022-07-23T05:32:05;16.38;;;9.93;;
68310;SDS011;55157;51.036;17.058;2022-07-23T05:34:31;14.88;;;9.95;;
68310;SDS011;55157;51.036;17.058;2022-07-23T05:36:56;16.33;;;9.23;;
68310;SDS011;55157;51.036;17.058;2022-07-23T05:39:23;17.08;;;9.80;;
68310;SDS011;55157;51.036;17.058;2022-07-23T05:41:48;10.63;;;8.90;;
68310;SDS011;55157;51.036;17.058;2022-07-23T05:44:13;17.47;;;9.43;;
68310;SDS011;55157;51.036;17.058;2022-07-23T05:46:38;14.40;;;9.50;;
68310;SDS011;55157;51.036;17.058;2022-07-23T05:49:04;23.05;;;10.40;;
68310;SDS011;55157;51.036;17.058;2022-07-23T05:51:29;13.77;;;9.07;;
68310;SDS011;55157;51.036;17.058;2022-07-23T05:53:54;10.88;;;7.85;;
68310;SDS011;55157;51.036;17.058;2022-07-23T05:56:23;15.25;;;9.85;;
68310;SDS011;55157;51.036;17.058;2022-07-23T05:58:48;11.88;;;9.38;;
68310;SDS011;55157;51.036;17.058;2022-07-23T06:01:14;11.00;;;8.27;;
68310;SDS011;55157;51.036;17.058;2022-07-23T06:03:39;21.13;;;9.73;;
68310;SDS011;55157;51.036;17.058;2022-07-23T06:06:04;14.93;;;8.38;;
68310;SDS011;55157;51.036;17.058;2022-07-23T06:08:30;14.13;;;8.50;;
68310;SDS011;55157;51.036;17.058;2022-07-23T06:10:55;16.38;;;9.07;;
68310;SDS011;55157;51.036;17.058;2022-07-23T06:13:21;13.43;;;8.85;;
68310;SDS011;55157;51.036;17.058;2022-07-23T06:15:47;13.15;;;8.45;;
68310;SDS011;55157;51.036;17.058;2022-07-23T06:18:12;13.32;;;8.95;;
68310;SDS011;55157;51.036;17.058;2022-07-23T06:20:37;14.83;;;9.57;;
68310;SDS011;55157;51.036;17.058;2022-07-23T06:23:03;16.98;;;8.60;;
68310;SDS011;55157;51.036;17.058;2022-07-23T06:25:28;16.63;;;9.52;;
68310;SDS011;55157;51.036;17.058;2022-07-23T06:27:53;14.93;;;9.63;;
68310;SDS011;55157;51.036;17.058;2022-07-23T06:30:20;12.87;;;9.20;;
68310;SDS011;55157;51.036;17.058;2022-07-23T06:32:45;19.08;;;9.80;;
68310;SDS011;55157;51.036;17.058;2022-07-23T06:35:11;15.63;;;9.05;;
68310;SDS011;55157;51.036;17.058;2022-07-23T06:37:36;12.55;;;9.15;;
68310;SDS011;55157;51.036;17.058;2022-07-23T06:40:01;16.08;;;8.77;;
68310;SDS011;55157;51.036;17.058;2022-07-23T06:42:26;13.10;;;8.82;;
68310;SDS011;55157;51.036;17.058;2022-07-23T06:44:52;13.35;;;9.55;;
68310;SDS011;55157;51.036;17.058;2022-07-23T06:47:18;21.40;;;9.70;;
68310;SDS011;55157;51.036;17.058;2022-07-23T06:49:44;16.83;;;8.98;;
68310;SDS011;55157;51.036;17.058;2022-07-23T06:52:09;22.52;;;8.70;;
68310;SDS011;55157;51.036;17.058;2022-07-23T06:54:34;10.80;;;8.40;;
68310;SDS011;55157;51.036;17.058;2022-07-23T06:56:59;11.70;;;8.00;;
68310;SDS011;55157;51.036;17.058;2022-07-23T06:59:25;13.88;;;8.35;;
68310;SDS011;55157;51.036;17.058;2022-07-23T07:01:50;14.65;;;7.70;;
68310;SDS011;55157;51.036;17.058;2022-07-23T07:04:17;17.13;;;8.57;;
68310;SDS011;55157;51.036;17.058;2022-07-23T07:06:42;16.42;;;8.27;;
68310;SDS011;55157;51.036;17.058;2022-07-23T07:09:07;18.77;;;8.27;;
68310;SDS011;55157;51.036;17.058;2022-07-23T07:11:32;12.68;;;7.70;;
68310;SDS011;55157;51.036;17.058;2022-07-23T07:13:58;11.13;;;8.30;;
68310;SDS011;55157;51.036;17.058;2022-07-23T07:16:23;17.17;;;8.77;;
68310;SDS011;55157;51.036;17.058;2022-07-23T07:18:48;11.13;;;8.37;;
68310;SDS011;55157;51.036;17.058;2022-07-23T07:21:15;13.32;;;7.63;;
68310;SDS011;55157;51.036;17.058;2022-07-23T07:23:40;12.63;;;7.97;;
68310;SDS011;55157;51.036;17.058;2022-07-23T07:26:05;11.73;;;8.93;;
68310;SDS011;55157;51.036;17.058;2022-07-23T07:28:31;10.85;;;7.90;;
68310;SDS011;55157;51.036;17.058;2022-07-23T07:30:56;20.20;;;9.05;;
68310;SDS011;55157;51.036;17.058;2022-07-23T07:33:21;21.85;;;8.98;;
68310;SDS011;55157;51.036;17.058;2022-07-23T07:35:47;12.32;;;9.25;;
68310;SDS011;55157;51.036;17.058;2022-07-23T07:38:13;13.07;;;9.68;;
68310;SDS011;55157;51.036;17.058;2022-07-23T07:40:39;18.23;;;8.10;;
68310;SDS011;55157;51.036;17.058;2022-07-23T07:43:04;16.02;;;8.05;;
68310;SDS011;55157;51.036;17.058;2022-07-23T07:45:29;20.25;;;8.52;;
68310;SDS011;55157;51.036;17.058;2022-07-23T07:47:55;17.30;;;7.90;;
68310;SDS011;55157;51.036;17.058;2022-07-23T07:50:20;15.43;;;8.18;;
68310;SDS011;55157;51.036;17.058;2022-07-23T07:52:46;12.45;;;7.95;;
68310;SDS011;55157;51.036;17.058;2022-07-23T07:55:12;19.00;;;8.68;;
68310;SDS011;55157;51.036;17.058;2022-07-23T07:57:38;13.70;;;7.90;;
68310;SDS011;55157;51.036;17.058;2022-07-23T08:00:04;12.15;;;8.80;;
68310;SDS011;55157;51.036;17.058;2022-07-23T08:02:29;14.02;;;8.90;;
68310;SDS011;55157;51.036;17.058;2022-07-23T08:05:04;12.93;;;8.88;;
68310;SDS011;55157;51.036;17.058;2022-07-23T08:07:30;14.38;;;8.93;;
68310;SDS011;55157;51.036;17.058;2022-07-23T08:09:55;19.05;;;9.07;;
68310;SDS011;55157;51.036;17.058;2022-07-23T08:12:21;17.27;;;9.23;;
68310;SDS011;55157;51.036;17.058;2022-07-23T08:14:47;14.93;;;8.48;;
68310;SDS011;55157;51.036;17.058;2022-07-23T08:17:12;16.17;;;8.80;;
68310;SDS011;55157;51.036;17.058;2022-07-23T08:19:37;24.58;;;9.50;;
68310;SDS011;55157;51.036;17.058;2022-07-23T08:22:02;16.13;;;8.03;;
68310;SDS011;55157;51.036;17.058;2022-07-23T08:24:28;11.68;;;8.90;;
68310;SDS011;55157;51.036;17.058;2022-07-23T08:26:53;14.40;;;8.53;;
68310;SDS011;55157;51.036;17.058;2022-07-23T08:29:19;20.17;;;9.40;;
68310;SDS011;55157;51.036;17.058;2022-07-23T08:31:45;15.50;;;8.68;;
68310;SDS011;55157;51.036;17.058;2022-07-23T08:34:10;13.83;;;8.40;;
68310;SDS011;55157;51.036;17.058;2022-07-23T08:36:35;13.73;;;9.67;;
68310;SDS011;55157;51.036;17.058;2022-07-23T08:39:00;13.05;;;7.55;;
68310;SDS011;55157;51.036;17.058;2022-07-23T08:41:26;11.50;;;8.97;;
68310;SDS011;55157;51.036;17.058;2022-07-23T08:43:51;17.27;;;8.73;;
68310;SDS011;55157;51.036;17.058;2022-07-23T08:46:18;12.10;;;9.17;;
68310;SDS011;55157;51.036;17.058;2022-07-23T08:48:43;15.80;;;8.82;;
68310;SDS011;55157;51.036;17.058;2022-07-23T08:51:12;17.75;;;8.82;;
68310;SDS011;55157;51.036;17.058;2022-07-23T08:53:37;18.23;;;9.70;;
68310;SDS011;55157;51.036;17.058;2022-07-23T08:56:03;25.42;;;8.75;;
68310;SDS011;55157;51.036;17.058;2022-07-23T08:58:28;24.30;;;9.32;;
68310;SDS011;55157;51.036;17.058;2022-07-23T09:00:54;13.57;;;9.23;;
68310;SDS011;55157;51.036;17.058;2022-07-23T09:03:21;12.60;;;8.73;;
68310;SDS011;55157;51.036;17.058;2022-07-23T09:05:47;14.48;;;9.35;;
68310;SDS011;55157;51.036;17.058;2022-07-23T09:08:14;15.82;;;8.88;;
68310;SDS011;55157;51.036;17.058;2022-07-23T09:10:46;13.40;;;8.63;;
68310;SDS011;55157;51.036;17.058;2022-07-23T09:13:28;11.07;;;8.25;;
68310;SDS011;55157;51.036;17.058;2022-07-23T09:15:54;16.48;;;7.97;;
68310;SDS011;55157;51.036;17.058;2022-07-23T09:18:28;16.38;;;8.30;;
68310;SDS011;55157;51.036;17.058;2022-07-23T09:21:04;15.25;;;7.38;;
68310;SDS011;55157;51.036;17.058;2022-07-23T09:23:36;11.98;;;7.60;;
68310;SDS011;55157;51.036;17.058;2022-07-23T09:26:01;15.80;;;7.37;;
68310;SDS011;55157;51.036;17.058;2022-07-23T09:28:27;14.55;;;8.32;;
68310;SDS011;55157;51.036;17.058;2022-07-23T09:30:52;18.20;;;7.70;;
68310;SDS011;55157;51.036;17.058;2022-07-23T09:33:17;9.57;;;7.10;;
68310;SDS011;55157;51.036;17.058;2022-07-23T09:35:45;13.85;;;7.75;;
68310;SDS011;55157;51.036;17.058;2022-07-23T09:38:10;11.82;;;7.28;;
68310;SDS011;55157;51.036;17.058;2022-07-23T09:40:35;15.33;;;7.67;;
68310;SDS011;55157;51.036;17.058;2022-07-23T09:43:00;20.67;;;8.05;;
68310;SDS011;55157;51.036;17.058;2022-07-23T09:45:26;16.77;;;8.13;;
68310;SDS011;55157;51.036;17.058;2022-07-23T09:47:51;11.97;;;8.20;;
68310;SDS011;55157;51.036;17.058;2022-07-23T09:50:34;17.30;;;7.82;;
68310;SDS011;55157;51.036;17.058;2022-07-23T09:53:01;13.57;;;7.10;;
68310;SDS011;55157;51.036;17.058;2022-07-23T09:55:31;11.85;;;6.07;;
68310;SDS011;55157;51.036;17.058;2022-07-23T09:57:56;23.45;;;8.52;;
68310;SDS011;55157;51.036;17.058;2022-07-23T10:28:13;48.53;;;10.00;;
68310;SDS011;55157;51.036;17.058;2022-07-23T10:30:45;17.50;;;7.53;;
68310;SDS011;55157;51.036;17.058;2022-07-23T10:33:20;23.92;;;9.10;;
68310;SDS011;55157;51.036;17.058;2022-07-23T10:35:48;18.85;;;7.22;;
68310;SDS011;55157;51.036;17.058;2022-07-23T10:38:20;12.57;;;7.95;;
68310;SDS011;55157;51.036;17.058;2022-07-23T10:40:53;11.48;;;7.40;;
68310;SDS011;55157;51.036;17.058;2022-07-23T10:45:45;11.93;;;7.57;;
68310;SDS011;55157;51.036;17.058;2022-07-23T10:48:11;11.82;;;7.90;;
68310;SDS011;55157;51.036;17.058;2022-07-23T10:50:37;20.70;;;8.50;;
68310;SDS011;55157;51.036;17.058;2022-07-23T10:53:12;10.68;;;8.65;;
68310;SDS011;55157;51.036;17.058;2022-07-23T10:55:42;21.25;;;9.07;;
68310;SDS011;55157;51.036;17.058;2022-07-23T10:58:08;23.35;;;10.50;;
68310;SDS011;55157;51.036;17.058;2022-07-23T11:00:34;26.52;;;10.88;;
68310;SDS011;55157;51.036;17.058;2022-07-23T11:03:01;15.80;;;10.32;;
68310;SDS011;55157;51.036;17.058;2022-07-23T11:05:40;15.18;;;8.02;;
68310;SDS011;55157;51.036;17.058;2022-07-23T11:10:51;11.07;;;8.65;;
68310;SDS011;55157;51.036;17.058;2022-07-23T11:13:29;15.63;;;8.68;;
68310;SDS011;55157;51.036;17.058;2022-07-23T11:16:05;10.82;;;8.07;;
68310;SDS011;55157;51.036;17.058;2022-07-23T11:18:54;11.73;;;7.97;;
68310;SDS011;55157;51.036;17.058;2022-07-23T11:24:04;10.75;;;8.18;;
68310;SDS011;55157;51.036;17.058;2022-07-23T11:31:57;17.25;;;8.75;;
68310;SDS011;55157;51.036;17.058;2022-07-23T11:34:31;12.65;;;8.95;;
68310;SDS011;55157;51.036;17.058;2022-07-23T11:36:57;10.50;;;9.40;;
68310;SDS011;55157;51.036;17.058;2022-07-23T11:39:22;11.75;;;9.18;;
68310;SDS011;55157;51.036;17.058;2022-07-23T11:41:49;18.08;;;10.43;;
68310;SDS011;55157;51.036;17.058;2022-07-23T11:44:23;11.82;;;9.15;;
68310;SDS011;55157;51.036;17.058;2022-07-23T11:46:53;14.98;;;9.18;;
68310;SDS011;55157;51.036;17.058;2022-07-23T11:49:19;14.00;;;9.90;;
68310;SDS011;55157;51.036;17.058;2022-07-23T11:51:45;12.50;;;9.47;;
68310;SDS011;55157;51.036;17.058;2022-07-23T11:54:11;11.75;;;8.57;;
68310;SDS011;55157;51.036;17.058;2022-07-23T11:56:36;12.80;;;9.77;;
68310;SDS011;55157;51.036;17.058;2022-07-23T11:59:01;12.37;;;9.60;;
68310;SDS011;55157;51.036;17.058;2022-07-23T12:01:27;10.93;;;9.30;;
68310;SDS011;55157;51.036;17.058;2022-07-23T12:03:52;12.20;;;9.38;;
68310;SDS011;55157;51.036;17.058;2022-07-23T12:06:17;13.23;;;9.70;;
68310;SDS011;55157;51.036;17.058;2022-07-23T12:08:44;12.00;;;9.70;;
68310;SDS011;55157;51.036;17.058;2022-07-23T12:11:11;10.68;;;9.02;;
68310;SDS011;55157;51.036;17.058;2022-07-23T12:13:36;11.07;;;9.18;;
68310;SDS011;55157;51.036;17.058;2022-07-23T12:16:02;10.10;;;9.10;;
68310;SDS011;55157;51.036;17.058;2022-07-23T12:18:27;15.38;;;9.68;;
68310;SDS011;55157;51.036;17.058;2022-07-23T12:20:53;13.00;;;10.20;;
68310;SDS011;55157;51.036;17.058;2022-07-23T12:23:19;10.20;;;9.20;;
68310;SDS011;55157;51.036;17.058;2022-07-23T12:25:46;9.75;;;8.13;;
68310;SDS011;55157;51.036;17.058;2022-07-23T12:28:13;11.43;;;8.77;;
68310;SDS011;55157;51.036;17.058;2022-07-23T12:30:40;11.20;;;8.32;;
68310;SDS011;55157;51.036;17.058;2022-07-23T12:33:06;11.35;;;8.70;;
68310;SDS011;55157;51.036;17.058;2022-07-23T12:35:32;14.93;;;8.65;;
68310;SDS011;55157;51.036;17.058;2022-07-23T12:38:00;17.00;;;9.35;;
68310;SDS011;55157;51.036;17.058;2022-07-23T12:40:26;11.63;;;9.07;;
68310;SDS011;55157;51.036;17.058;2022-07-23T12:42:54;13.65;;;8.80;;
68310;SDS011;55157;51.036;17.058;2022-07-23T12:45:19;16.88;;;8.93;;
68310;SDS011;55157;51.036;17.058;2022-07-23T12:47:59;13.07;;;8.13;;
68310;SDS011;55157;51.036;17.058;2022-07-23T12:50:31;12.05;;;7.13;;
68310;SDS011;55157;51.036;17.058;2022-07-23T12:53:01;13.43;;;7.45;;
68310;SDS011;55157;51.036;17.058;2022-07-23T12:55:26;10.38;;;7.03;;
68310;SDS011;55157;51.036;17.058;2022-07-23T12:57:53;8.50;;;7.05;;
68310;SDS011;55157;51.036;17.058;2022-07-23T13:00:27;11.57;;;7.65;;
68310;SDS011;55157;51.036;17.058;2022-07-23T13:02:52;8.55;;;7.45;;
68310;SDS011;55157;51.036;17.058;2022-07-23T13:05:17;12.20;;;7.23;;
68310;SDS011;55157;51.036;17.058;2022-07-23T13:07:42;10.10;;;7.18;;
68310;SDS011;55157;51.036;17.058;2022-07-23T13:10:08;14.97;;;8.20;;
68310;SDS011;55157;51.036;17.058;2022-07-23T13:12:33;10.35;;;6.82;;
68310;SDS011;55157;51.036;17.058;2022-07-23T13:15:00;14.43;;;7.37;;
68310;SDS011;55157;51.036;17.058;2022-07-23T13:17:25;12.05;;;7.28;;
68310;SDS011;55157;51.036;17.058;2022-07-23T13:19:50;9.50;;;6.83;;
68310;SDS011;55157;51.036;17.058;2022-07-23T13:22:16;11.33;;;7.40;;
68310;SDS011;55157;51.036;17.058;2022-07-23T13:24:41;10.63;;;8.35;;
68310;SDS011;55157;51.036;17.058;2022-07-23T13:27:06;9.97;;;7.57;;
68310;SDS011;55157;51.036;17.058;2022-07-23T13:29:31;10.03;;;7.73;;
68310;SDS011;55157;51.036;17.058;2022-07-23T13:31:58;11.57;;;8.43;;
68310;SDS011;55157;51.036;17.058;2022-07-23T13:34:23;13.32;;;7.50;;
68310;SDS011;55157;51.036;17.058;2022-07-23T13:36:49;11.17;;;6.93;;
68310;SDS011;55157;51.036;17.058;2022-07-23T13:39:14;10.53;;;7.90;;
68310;SDS011;55157;51.036;17.058;2022-07-23T13:41:39;10.93;;;8.73;;
68310;SDS011;55157;51.036;17.058;2022-07-23T13:44:04;9.17;;;7.90;;
68310;SDS011;55157;51.036;17.058;2022-07-23T13:46:29;9.33;;;8.13;;
68310;SDS011;55157;51.036;17.058;2022-07-23T13:48:56;15.02;;;9.00;;
68310;SDS011;55157;51.036;17.058;2022-07-23T13:51:21;12.30;;;9.60;;
68310;SDS011;55157;51.036;17.058;2022-07-23T13:53:47;12.70;;;7.77;;
68310;SDS011;55157;51.036;17.058;2022-07-23T13:56:12;9.68;;;8.65;;
68310;SDS011;55157;51.036;17.058;2022-07-23T13:58:37;13.48;;;7.78;;
68310;SDS011;55157;51.036;17.058;2022-07-23T14:01:03;27.40;;;9.00;;
68310;SDS011;55157;51.036;17.058;2022-07-23T14:03:28;8.98;;;7.53;;
68310;SDS011;55157;51.036;17.058;2022-07-23T14:05:55;10.90;;;7.67;;
68310;SDS011;55157;51.036;17.058;2022-07-23T14:08:20;12.27;;;8.57;;
68310;SDS011;55157;51.036;17.058;2022-07-23T14:10:45;12.50;;;7.87;;
68310;SDS011;55157;51.036;17.058;2022-07-23T14:13:10;12.93;;;8.43;;
68310;SDS011;55157;51.036;17.058;2022-07-23T14:15:36;20.77;;;8.38;;
68310;SDS011;55157;51.036;17.058;2022-07-23T14:18:01;10.60;;;8.13;;
68310;SDS011;55157;51.036;17.058;2022-07-23T14:20:26;9.88;;;8.35;;
68310;SDS011;55157;51.036;17.058;2022-07-23T14:22:53;11.33;;;7.90;;
68310;SDS011;55157;51.036;17.058;2022-07-23T14:25:18;13.40;;;8.63;;
68310;SDS011;55157;51.036;17.058;2022-07-23T14:27:44;12.20;;;7.70;;
68310;SDS011;55157;51.036;17.058;2022-07-23T14:30:09;15.05;;;7.85;;
68310;SDS011;55157;51.036;17.058;2022-07-23T14:32:35;22.58;;;8.50;;
68310;SDS011;55157;51.036;17.058;2022-07-23T14:35:00;9.98;;;8.15;;
68310;SDS011;55157;51.036;17.058;2022-07-23T14:37:26;12.90;;;7.43;;
68310;SDS011;55157;51.036;17.058;2022-07-23T14:39:52;14.73;;;8.60;;
68310;SDS011;55157;51.036;17.058;2022-07-23T14:42:18;12.50;;;8.35;;
68310;SDS011;55157;51.036;17.058;2022-07-23T14:44:43;14.18;;;8.52;;
68310;SDS011;55157;51.036;17.058;2022-07-23T14:47:09;14.02;;;7.90;;
68310;SDS011;55157;51.036;17.058;2022-07-23T14:49:34;13.15;;;8.48;;
68310;SDS011;55157;51.036;17.058;2022-07-23T14:51:59;9.73;;;8.50;;
68310;SDS011;55157;51.036;17.058;2022-07-23T14:54:25;14.38;;;8.43;;